Startpagina
METAR-TAF:

METAR-TAF

Vliegvelden :

Kaapstad, Zuid-Afrika

Cape Town International Airport

breedte: 33-59S, lengte: 018-36E, hoogte: 42 m

Actueel weer

Dit bericht is 1 uur en het 5 minuten geleden gemaakt, om 02:00 UTC
Wind 12 kt uit het zuiden
Temperatuur 13°C
Vochtigheid 72%
Druk 1020 hPa
Zicht 10 km of meer
Gebroken wolken op 4000 ft

METAR: FACT 240200Z 18012KT 9999 BKN040 13/08 Q1020 NOSIG

Tijdstip: 05:05 (03:05 UTC)

Verwachting

Dit bericht is 5 uur en het 5 minuten geleden gemaakt, om 22:00 UTC
Verwachting geldig van 24 om 00 UTC tot 25 om 06 UTC
Wind 10 kt uit het zuidzuidwesten
Zicht 10 km of meer
Verspreide wolken op 1500 ft
Gebroken wolken op 2000 ft
Van 24 om 0600 UTC
Wind 14 kt uit het zuiden
Zicht 10 km of meer
Verspreide wolken op 3500 ft
Wijzigt naar
van 24 om 19 UTC tot 24 om 21 UTC
Wind 5 kt uit variabele richting

TAF: FACT 232200Z 2400/2506 21010KT 9999 SCT015 BKN020 FM240600 18014KT 9999 SCT035 BECMG 2419/2421 VRB05KT TX16/2412Z TN07/2506Z

Waarnemingen en weersverwachtingen van meer dan 4000 vliegvelden (METAR en TAF).

De beschikbare stations zijn de gele en rode punten op de kaart.

Ga met uw muis naar het station om de naam te zien.

Klik dan om waarnemingen en weersverwachtingen te zien.

kaart wijzigen: klik op de groene knoppen met een zwart kruis om in te zoomen, op de groene knop met een streepje om uit te zoomen of op de groene pijlen voor aangrenzende kaarten.


METAR-TAF: